sensor_id;sensor_type;location;lat;lon;timestamp;pressure;altitude;pressure_sealevel;temperature;humidity
7026;BME280;3554;42.132;24.786;2023-05-29T00:01:28;102202.13;;;17.29;100.00
7026;BME280;3554;42.132;24.786;2023-05-29T00:03:56;102194.22;;;17.28;100.00
7026;BME280;3554;42.132;24.786;2023-05-29T00:06:23;102186.34;;;17.25;100.00
7026;BME280;3554;42.132;24.786;2023-05-29T00:08:50;102183.72;;;17.23;100.00
7026;BME280;3554;42.132;24.786;2023-05-29T00:11:18;102196.97;;;17.23;100.00
7026;BME280;3554;42.132;24.786;2023-05-29T00:13:45;102188.16;;;17.23;100.00
7026;BME280;3554;42.132;24.786;2023-05-29T00:16:12;102199.38;;;17.34;100.00
7026;BME280;3554;42.132;24.786;2023-05-29T00:18:39;102194.06;;;17.35;100.00
7026;BME280;3554;42.132;24.786;2023-05-29T00:21:11;102193.97;;;17.38;100.00
7026;BME280;3554;42.132;24.786;2023-05-29T00:23:38;102200.09;;;17.40;100.00
7026;BME280;3554;42.132;24.786;2023-05-29T00:26:04;102181.88;;;17.28;100.00
7026;BME280;3554;42.132;24.786;2023-05-29T00:28:33;102170.41;;;17.28;100.00
7026;BME280;3554;42.132;24.786;2023-05-29T00:31:00;102156.22;;;17.29;100.00
7026;BME280;3554;42.132;24.786;2023-05-29T00:33:27;102140.72;;;17.13;100.00
7026;BME280;3554;42.132;24.786;2023-05-29T00:35:54;102130.00;;;17.18;100.00
7026;BME280;3554;42.132;24.786;2023-05-29T00:38:21;102130.00;;;17.18;100.00
7026;BME280;3554;42.132;24.786;2023-05-29T00:40:47;102115.94;;;17.18;100.00
7026;BME280;3554;42.132;24.786;2023-05-29T00:43:14;102122.06;;;17.18;100.00
7026;BME280;3554;42.132;24.786;2023-05-29T00:45:42;102125.25;;;17.34;100.00
7026;BME280;3554;42.132;24.786;2023-05-29T00:48:09;102097.44;;;17.14;100.00
7026;BME280;3554;42.132;24.786;2023-05-29T00:50:36;102107.38;;;17.06;100.00
7026;BME280;3554;42.132;24.786;2023-05-29T00:53:03;102112.69;;;17.03;100.00
7026;BME280;3554;42.132;24.786;2023-05-29T00:55:31;102118.16;;;16.97;100.00
7026;BME280;3554;42.132;24.786;2023-05-29T00:57:59;102136.59;;;17.00;100.00
7026;BME280;3554;42.132;24.786;2023-05-29T01:00:25;102159.38;;;17.07;100.00
7026;BME280;3554;42.132;24.786;2023-05-29T01:02:54;102178.53;;;17.19;100.00
7026;BME280;3554;42.132;24.786;2023-05-29T01:05:21;102154.44;;;16.92;100.00
7026;BME280;3554;42.132;24.786;2023-05-29T01:07:49;102205.84;;;17.21;100.00
7026;BME280;3554;42.132;24.786;2023-05-29T01:10:16;102200.50;;;17.24;100.00
7026;BME280;3554;42.132;24.786;2023-05-29T01:12:47;102209.06;;;17.35;100.00
7026;BME280;3554;42.132;24.786;2023-05-29T01:15:28;102209.94;;;17.35;100.00
7026;BME280;3554;42.132;24.786;2023-05-29T01:18:08;102206.19;;;17.44;100.00
7026;BME280;3554;42.132;24.786;2023-05-29T01:20:42;102193.03;;;17.41;100.00
7026;BME280;3554;42.132;24.786;2023-05-29T01:23:28;102174.31;;;17.50;100.00
7026;BME280;3554;42.132;24.786;2023-05-29T01:26:32;102142.72;;;17.41;100.00
7026;BME280;3554;42.132;24.786;2023-05-29T01:29:02;102099.66;;;17.33;100.00
7026;BME280;3554;42.132;24.786;2023-05-29T01:31:31;102092.72;;;17.27;100.00
7026;BME280;3554;42.132;24.786;2023-05-29T01:33:59;102083.06;;;17.26;100.00
7026;BME280;3554;42.132;24.786;2023-05-29T01:36:26;102060.06;;;17.27;100.00
7026;BME280;3554;42.132;24.786;2023-05-29T01:38:55;102036.22;;;17.28;100.00
7026;BME280;3554;42.132;24.786;2023-05-29T01:41:23;101993.22;;;17.19;100.00
7026;BME280;3554;42.132;24.786;2023-05-29T01:43:52;101935.38;;;17.03;100.00
7026;BME280;3554;42.132;24.786;2023-05-29T01:46:20;101941.75;;;17.29;100.00
7026;BME280;3554;42.132;24.786;2023-05-29T01:48:48;101905.72;;;17.23;100.00
7026;BME280;3554;42.132;24.786;2023-05-29T01:51:15;101864.13;;;17.28;100.00
7026;BME280;3554;42.132;24.786;2023-05-29T01:53:42;101820.91;;;17.28;100.00
7026;BME280;3554;42.132;24.786;2023-05-29T01:56:10;101761.72;;;17.29;100.00
7026;BME280;3554;42.132;24.786;2023-05-29T01:58:38;101714.72;;;17.37;100.00
7026;BME280;3554;42.132;24.786;2023-05-29T02:01:07;101667.19;;;17.32;100.00
7026;BME280;3554;42.132;24.786;2023-05-29T02:03:34;101627.03;;;17.46;100.00
7026;BME280;3554;42.132;24.786;2023-05-29T02:06:01;101561.25;;;17.34;100.00
7026;BME280;3554;42.132;24.786;2023-05-29T02:08:28;101524.72;;;17.43;100.00
7026;BME280;3554;42.132;24.786;2023-05-29T02:10:54;101439.78;;;17.25;100.00
7026;BME280;3554;42.132;24.786;2023-05-29T02:13:21;101381.63;;;17.22;100.00
7026;BME280;3554;42.132;24.786;2023-05-29T02:15:48;101318.91;;;17.24;100.00
7026;BME280;3554;42.132;24.786;2023-05-29T02:18:16;101252.84;;;17.21;100.00
7026;BME280;3554;42.132;24.786;2023-05-29T02:20:44;101235.13;;;17.46;100.00
7026;BME280;3554;42.132;24.786;2023-05-29T02:23:11;101198.47;;;17.58;100.00
7026;BME280;3554;42.132;24.786;2023-05-29T02:25:38;101139.91;;;17.43;100.00
7026;BME280;3554;42.132;24.786;2023-05-29T02:28:05;101106.94;;;17.30;100.00
7026;BME280;3554;42.132;24.786;2023-05-29T02:30:32;101079.88;;;17.22;100.00
7026;BME280;3554;42.132;24.786;2023-05-29T02:32:59;101124.63;;;17.51;100.00
7026;BME280;3554;42.132;24.786;2023-05-29T02:35:27;101104.50;;;17.45;100.00
7026;BME280;3554;42.132;24.786;2023-05-29T02:37:54;101096.53;;;17.47;100.00
7026;BME280;3554;42.132;24.786;2023-05-29T02:40:21;101088.50;;;17.48;100.00
7026;BME280;3554;42.132;24.786;2023-05-29T02:42:49;101052.72;;;17.60;100.00
7026;BME280;3554;42.132;24.786;2023-05-29T02:45:16;101005.53;;;17.49;100.00
7026;BME280;3554;42.132;24.786;2023-05-29T02:47:43;101001.03;;;17.51;100.00
7026;BME280;3554;42.132;24.786;2023-05-29T02:50:10;100982.59;;;17.48;100.00
7026;BME280;3554;42.132;24.786;2023-05-29T02:52:41;100972.38;;;17.39;100.00
7026;BME280;3554;42.132;24.786;2023-05-29T02:55:08;100955.41;;;17.23;100.00
7026;BME280;3554;42.132;24.786;2023-05-29T02:57:35;100970.44;;;17.43;100.00
7026;BME280;3554;42.132;24.786;2023-05-29T03:00:02;100952.44;;;17.52;100.00
7026;BME280;3554;42.132;24.786;2023-05-29T03:02:31;100931.88;;;17.37;100.00
7026;BME280;3554;42.132;24.786;2023-05-29T03:05:00;100936.38;;;17.55;100.00
7026;BME280;3554;42.132;24.786;2023-05-29T03:07:26;100871.91;;;17.36;100.00
7026;BME280;3554;42.132;24.786;2023-05-29T03:09:55;100865.13;;;17.51;100.00
7026;BME280;3554;42.132;24.786;2023-05-29T03:12:22;100852.47;;;17.37;100.00
7026;BME280;3554;42.132;24.786;2023-05-29T03:14:48;100878.41;;;17.29;100.00
7026;BME280;3554;42.132;24.786;2023-05-29T03:17:15;100909.44;;;17.26;100.00
7026;BME280;3554;42.132;24.786;2023-05-29T03:19:42;100945.53;;;17.28;100.00
7026;BME280;3554;42.132;24.786;2023-05-29T03:22:09;100981.75;;;17.48;100.00
7026;BME280;3554;42.132;24.786;2023-05-29T03:24:35;100979.63;;;17.56;100.00
7026;BME280;3554;42.132;24.786;2023-05-29T03:27:05;100976.97;;;17.56;100.00
7026;BME280;3554;42.132;24.786;2023-05-29T03:29:33;100987.44;;;17.59;100.00
7026;BME280;3554;42.132;24.786;2023-05-29T03:32:00;100983.00;;;17.59;100.00
7026;BME280;3554;42.132;24.786;2023-05-29T03:34:27;101005.84;;;17.62;100.00
7026;BME280;3554;42.132;24.786;2023-05-29T03:36:54;101018.84;;;17.48;100.00
7026;BME280;3554;42.132;24.786;2023-05-29T03:39:22;101009.31;;;17.42;100.00
7026;BME280;3554;42.132;24.786;2023-05-29T03:41:49;101050.75;;;17.65;100.00
7026;BME280;3554;42.132;24.786;2023-05-29T03:44:17;101040.69;;;17.53;100.00
7026;BME280;3554;42.132;24.786;2023-05-29T03:46:43;101066.44;;;17.49;100.00
7026;BME280;3554;42.132;24.786;2023-05-29T03:49:10;101084.13;;;17.26;100.00
7026;BME280;3554;42.132;24.786;2023-05-29T03:51:37;101126.84;;;17.17;100.00
7026;BME280;3554;42.132;24.786;2023-05-29T03:54:04;101171.31;;;17.07;100.00
7026;BME280;3554;42.132;24.786;2023-05-29T03:56:31;101237.53;;;17.29;100.00
7026;BME280;3554;42.132;24.786;2023-05-29T03:58:57;101252.22;;;17.37;100.00
7026;BME280;3554;42.132;24.786;2023-05-29T04:01:25;101242.03;;;17.27;100.00
7026;BME280;3554;42.132;24.786;2023-05-29T04:03:53;101257.47;;;17.39;100.00
7026;BME280;3554;42.132;24.786;2023-05-29T04:06:19;101245.44;;;17.30;100.00
7026;BME280;3554;42.132;24.786;2023-05-29T04:08:47;101244.38;;;17.34;100.00
7026;BME280;3554;42.132;24.786;2023-05-29T04:11:14;101239.84;;;17.38;100.00
7026;BME280;3554;42.132;24.786;2023-05-29T04:13:41;101223.03;;;17.39;100.00
7026;BME280;3554;42.132;24.786;2023-05-29T04:16:08;101216.59;;;17.46;100.00
7026;BME280;3554;42.132;24.786;2023-05-29T04:18:36;101180.31;;;17.69;100.00
7026;BME280;3554;42.132;24.786;2023-05-29T04:21:03;101117.91;;;17.84;100.00
7026;BME280;3554;42.132;24.786;2023-05-29T04:23:30;101029.97;;;17.96;100.00
7026;BME280;3554;42.132;24.786;2023-05-29T04:25:57;100922.78;;;18.01;100.00
7026;BME280;3554;42.132;24.786;2023-05-29T04:28:26;100838.78;;;18.03;100.00
7026;BME280;3554;42.132;24.786;2023-05-29T04:30:53;100727.28;;;18.08;100.00
7026;BME280;3554;42.132;24.786;2023-05-29T04:33:21;100622.66;;;18.15;100.00
7026;BME280;3554;42.132;24.786;2023-05-29T04:35:50;100527.75;;;18.22;100.00
7026;BME280;3554;42.132;24.786;2023-05-29T04:38:18;100449.00;;;18.08;100.00
7026;BME280;3554;42.132;24.786;2023-05-29T04:40:50;100390.44;;;17.97;100.00
7026;BME280;3554;42.132;24.786;2023-05-29T04:43:17;100348.72;;;17.85;100.00
7026;BME280;3554;42.132;24.786;2023-05-29T04:45:44;100307.25;;;17.84;100.00
7026;BME280;3554;42.132;24.786;2023-05-29T04:48:11;100289.66;;;17.98;100.00
7026;BME280;3554;42.132;24.786;2023-05-29T04:50:38;100252.47;;;18.00;100.00
7026;BME280;3554;42.132;24.786;2023-05-29T04:53:06;100215.63;;;18.11;100.00
7026;BME280;3554;42.132;24.786;2023-05-29T04:55:33;100152.13;;;18.09;100.00
7026;BME280;3554;42.132;24.786;2023-05-29T04:57:59;100107.09;;;18.09;100.00
7026;BME280;3554;42.132;24.786;2023-05-29T05:00:26;100076.31;;;18.07;100.00
7026;BME280;3554;42.132;24.786;2023-05-29T05:02:53;100074.41;;;17.95;100.00
7026;BME280;3554;42.132;24.786;2023-05-29T05:05:22;100094.06;;;17.91;100.00
7026;BME280;3554;42.132;24.786;2023-05-29T05:07:49;100093.81;;;17.95;100.00
7026;BME280;3554;42.132;24.786;2023-05-29T05:10:17;100092.69;;;17.99;100.00
7026;BME280;3554;42.132;24.786;2023-05-29T05:12:44;100079.56;;;17.82;100.00
7026;BME280;3554;42.132;24.786;2023-05-29T05:15:12;100088.72;;;17.77;100.00
7026;BME280;3554;42.132;24.786;2023-05-29T05:17:39;100102.41;;;17.69;100.00
7026;BME280;3554;42.132;24.786;2023-05-29T05:20:06;100114.13;;;17.65;100.00
7026;BME280;3554;42.132;24.786;2023-05-29T05:22:34;100082.16;;;17.68;100.00
7026;BME280;3554;42.132;24.786;2023-05-29T05:25:01;100059.72;;;17.89;100.00
7026;BME280;3554;42.132;24.786;2023-05-29T05:27:30;100021.72;;;17.90;100.00
7026;BME280;3554;42.132;24.786;2023-05-29T05:29:57;99986.50;;;18.02;100.00
7026;BME280;3554;42.132;24.786;2023-05-29T05:32:24;99922.47;;;18.10;100.00
7026;BME280;3554;42.132;24.786;2023-05-29T05:34:51;99850.81;;;18.11;100.00
7026;BME280;3554;42.132;24.786;2023-05-29T05:37:17;99772.69;;;18.31;100.00
7026;BME280;3554;42.132;24.786;2023-05-29T05:39:44;99726.16;;;18.40;100.00
7026;BME280;3554;42.132;24.786;2023-05-29T05:42:11;99660.97;;;18.50;100.00
7026;BME280;3554;42.132;24.786;2023-05-29T05:44:39;99599.69;;;18.67;100.00
7026;BME280;3554;42.132;24.786;2023-05-29T05:47:06;99558.00;;;18.69;100.00
7026;BME280;3554;42.132;24.786;2023-05-29T05:49:33;99483.34;;;18.62;100.00
7026;BME280;3554;42.132;24.786;2023-05-29T05:51:59;99459.78;;;18.70;100.00
7026;BME280;3554;42.132;24.786;2023-05-29T05:54:26;99420.28;;;18.78;100.00
7026;BME280;3554;42.132;24.786;2023-05-29T05:56:53;99394.78;;;18.88;100.00
7026;BME280;3554;42.132;24.786;2023-05-29T05:59:20;99362.44;;;18.83;100.00
7026;BME280;3554;42.132;24.786;2023-05-29T06:01:48;99325.75;;;19.01;100.00
7026;BME280;3554;42.132;24.786;2023-05-29T06:04:15;99302.16;;;19.20;100.00
7026;BME280;3554;42.132;24.786;2023-05-29T06:06:42;99268.31;;;19.35;100.00
7026;BME280;3554;42.132;24.786;2023-05-29T06:09:08;99221.47;;;19.45;100.00
7026;BME280;3554;42.132;24.786;2023-05-29T06:11:36;99202.50;;;19.49;100.00
7026;BME280;3554;42.132;24.786;2023-05-29T06:14:04;99176.81;;;19.61;100.00
7026;BME280;3554;42.132;24.786;2023-05-29T06:16:30;99166.91;;;19.63;100.00
7026;BME280;3554;42.132;24.786;2023-05-29T06:18:59;99137.94;;;19.60;100.00
7026;BME280;3554;42.132;24.786;2023-05-29T06:21:26;99120.94;;;19.51;100.00
7026;BME280;3554;42.132;24.786;2023-05-29T06:23:52;99130.44;;;19.76;100.00
7026;BME280;3554;42.132;24.786;2023-05-29T06:26:19;99116.50;;;19.83;100.00
7026;BME280;3554;42.132;24.786;2023-05-29T06:28:46;99103.34;;;19.82;100.00
7026;BME280;3554;42.132;24.786;2023-05-29T06:31:13;99097.72;;;19.96;100.00
7026;BME280;3554;42.132;24.786;2023-05-29T06:33:40;99079.13;;;19.96;95.88
7026;BME280;3554;42.132;24.786;2023-05-29T06:36:08;99073.50;;;19.89;89.07
7026;BME280;3554;42.132;24.786;2023-05-29T06:38:36;99060.03;;;20.02;83.78
7026;BME280;3554;42.132;24.786;2023-05-29T06:41:02;99045.88;;;20.01;77.07
7026;BME280;3554;42.132;24.786;2023-05-29T06:43:29;99034.19;;;20.04;71.74
7026;BME280;3554;42.132;24.786;2023-05-29T06:45:56;99031.81;;;20.21;66.17
7026;BME280;3554;42.132;24.786;2023-05-29T06:48:23;99022.56;;;20.46;60.53
7026;BME280;3554;42.132;24.786;2023-05-29T06:50:49;99009.56;;;20.53;57.19
7026;BME280;3554;42.132;24.786;2023-05-29T06:53:17;99017.38;;;20.45;56.57
7026;BME280;3554;42.132;24.786;2023-05-29T06:55:44;99021.13;;;20.72;51.00
7026;BME280;3554;42.132;24.786;2023-05-29T06:58:11;99014.63;;;20.56;46.70
7026;BME280;3554;42.132;24.786;2023-05-29T07:00:38;99006.88;;;20.73;43.51
7026;BME280;3554;42.132;24.786;2023-05-29T07:03:05;99000.28;;;20.77;46.32
7026;BME280;3554;42.132;24.786;2023-05-29T07:05:32;99007.56;;;20.75;37.31
7026;BME280;3554;42.132;24.786;2023-05-29T07:07:59;98996.28;;;20.92;31.41
7026;BME280;3554;42.132;24.786;2023-05-29T07:10:27;98997.63;;;20.77;29.01
7026;BME280;3554;42.132;24.786;2023-05-29T07:12:53;98996.47;;;21.10;26.60
7026;BME280;3554;42.132;24.786;2023-05-29T07:15:20;99000.28;;;21.17;23.56
7026;BME280;3554;42.132;24.786;2023-05-29T07:17:47;98990.19;;;21.20;22.86
7026;BME280;3554;42.132;24.786;2023-05-29T07:20:14;98993.28;;;21.25;21.04
7026;BME280;3554;42.132;24.786;2023-05-29T07:22:41;98995.38;;;21.12;19.53
7026;BME280;3554;42.132;24.786;2023-05-29T07:25:08;98989.34;;;21.10;25.85
7026;BME280;3554;42.132;24.786;2023-05-29T07:27:36;98989.63;;;21.07;22.46
7026;BME280;3554;42.132;24.786;2023-05-29T07:30:03;98989.34;;;21.10;19.76
7026;BME280;3554;42.132;24.786;2023-05-29T07:32:31;98988.22;;;21.13;21.51
7026;BME280;3554;42.132;24.786;2023-05-29T07:34:57;98982.06;;;21.12;21.78
7026;BME280;3554;42.132;24.786;2023-05-29T07:37:24;98984.59;;;21.14;22.47
7026;BME280;3554;42.132;24.786;2023-05-29T07:39:51;98978.28;;;21.15;20.37
7026;BME280;3554;42.132;24.786;2023-05-29T07:42:18;98934.78;;;20.95;18.85
7026;BME280;3554;42.132;24.786;2023-05-29T07:44:46;98976.75;;;21.32;17.40
7026;BME280;3554;42.132;24.786;2023-05-29T07:47:13;98973.81;;;21.25;16.33
7026;BME280;3554;42.132;24.786;2023-05-29T07:49:40;98981.28;;;21.50;14.88
7026;BME280;3554;42.132;24.786;2023-05-29T07:52:07;98993.88;;;21.67;12.41
7026;BME280;3554;42.132;24.786;2023-05-29T07:54:34;98981.53;;;21.76;11.05
7026;BME280;3554;42.132;24.786;2023-05-29T07:57:00;98986.59;;;21.79;10.35
7026;BME280;3554;42.132;24.786;2023-05-29T07:59:29;98980.53;;;21.58;11.69
7026;BME280;3554;42.132;24.786;2023-05-29T08:01:57;98978.03;;;21.56;10.97
7026;BME280;3554;42.132;24.786;2023-05-29T08:04:26;98977.72;;;21.59;11.24
7026;BME280;3554;42.132;24.786;2023-05-29T08:06:52;98982.50;;;21.65;8.60
7026;BME280;3554;42.132;24.786;2023-05-29T08:09:19;98981.66;;;21.74;7.59
7026;BME280;3554;42.132;24.786;2023-05-29T08:11:46;98982.13;;;21.79;5.61
7026;BME280;3554;42.132;24.786;2023-05-29T08:14:13;98977.69;;;22.16;3.77
7026;BME280;3554;42.132;24.786;2023-05-29T08:16:40;98978.25;;;22.20;3.69
7026;BME280;3554;42.132;24.786;2023-05-29T08:19:08;98988.91;;;22.29;2.01
7026;BME280;3554;42.132;24.786;2023-05-29T08:21:35;98997.28;;;22.44;6.99
7026;BME280;3554;42.132;24.786;2023-05-29T08:24:03;99005.53;;;22.51;14.95
7026;BME280;3554;42.132;24.786;2023-05-29T08:26:31;98992.22;;;22.87;18.45
7026;BME280;3554;42.132;24.786;2023-05-29T08:28:58;99007.72;;;23.01;22.40
7026;BME280;3554;42.132;24.786;2023-05-29T08:31:24;99024.91;;;23.16;28.07
7026;BME280;3554;42.132;24.786;2023-05-29T08:33:52;99029.28;;;23.17;41.13
7026;BME280;3554;42.132;24.786;2023-05-29T08:36:20;99014.59;;;23.49;53.08
7026;BME280;3554;42.132;24.786;2023-05-29T08:38:47;99017.03;;;23.95;61.23
7026;BME280;3554;42.132;24.786;2023-05-29T08:41:19;99019.94;;;24.19;90.00
7026;BME280;3554;42.132;24.786;2023-05-29T08:43:48;99034.66;;;24.23;100.00
7026;BME280;3554;42.132;24.786;2023-05-29T08:46:18;99038.47;;;24.38;100.00
7026;BME280;3554;42.132;24.786;2023-05-29T08:48:48;99035.34;;;24.76;100.00
7026;BME280;3554;42.132;24.786;2023-05-29T08:51:16;99038.50;;;24.97;100.00
7026;BME280;3554;42.132;24.786;2023-05-29T08:53:47;99015.19;;;24.64;100.00
7026;BME280;3554;42.132;24.786;2023-05-29T08:56:14;99041.66;;;24.42;100.00
7026;BME280;3554;42.132;24.786;2023-05-29T08:58:41;99043.66;;;24.65;100.00
7026;BME280;3554;42.132;24.786;2023-05-29T09:01:09;99038.03;;;24.51;100.00
7026;BME280;3554;42.132;24.786;2023-05-29T09:03:36;99011.91;;;24.45;100.00
7026;BME280;3554;42.132;24.786;2023-05-29T09:06:04;99041.44;;;24.61;100.00
7026;BME280;3554;42.132;24.786;2023-05-29T09:08:33;99045.19;;;24.24;100.00
7026;BME280;3554;42.132;24.786;2023-05-29T09:11:01;99040.84;;;24.23;100.00
7026;BME280;3554;42.132;24.786;2023-05-29T09:13:27;99045.97;;;24.34;100.00
7026;BME280;3554;42.132;24.786;2023-05-29T09:15:57;99034.06;;;24.55;100.00
7026;BME280;3554;42.132;24.786;2023-05-29T09:18:28;99033.47;;;24.69;100.00
7026;BME280;3554;42.132;24.786;2023-05-29T09:20:56;99049.16;;;24.64;100.00
7026;BME280;3554;42.132;24.786;2023-05-29T09:23:23;99039.63;;;24.69;100.00
7026;BME280;3554;42.132;24.786;2023-05-29T09:25:53;99041.88;;;24.48;100.00
7026;BME280;3554;42.132;24.786;2023-05-29T09:28:22;99037.81;;;24.44;100.00
7026;BME280;3554;42.132;24.786;2023-05-29T09:30:52;99044.59;;;24.30;100.00
7026;BME280;3554;42.132;24.786;2023-05-29T09:33:19;99039.97;;;23.97;100.00
7026;BME280;3554;42.132;24.786;2023-05-29T09:35:47;99026.22;;;23.92;100.00
7026;BME280;3554;42.132;24.786;2023-05-29T09:38:15;99034.78;;;24.13;100.00
7026;BME280;3554;42.132;24.786;2023-05-29T09:40:42;99036.34;;;24.24;100.00
7026;BME280;3554;42.132;24.786;2023-05-29T09:43:11;99034.81;;;24.21;100.00
7026;BME280;3554;42.132;24.786;2023-05-29T09:45:41;99040.03;;;24.49;100.00
7026;BME280;3554;42.132;24.786;2023-05-29T09:48:13;99028.28;;;24.42;100.00
7026;BME280;3554;42.132;24.786;2023-05-29T09:50:40;99027.97;;;24.70;100.00
7026;BME280;3554;42.132;24.786;2023-05-29T09:53:16;98963.81;;;24.27;100.00
7026;BME280;3554;42.132;24.786;2023-05-29T09:55:44;99025.06;;;24.64;100.00
7026;BME280;3554;42.132;24.786;2023-05-29T09:58:13;99019.63;;;24.73;100.00
7026;BME280;3554;42.132;24.786;2023-05-29T10:00:42;99007.16;;;24.64;100.00
7026;BME280;3554;42.132;24.786;2023-05-29T10:03:09;99016.31;;;24.54;100.00
7026;BME280;3554;42.132;24.786;2023-05-29T10:05:37;99015.63;;;24.26;100.00
7026;BME280;3554;42.132;24.786;2023-05-29T10:08:05;99019.31;;;24.51;100.00
7026;BME280;3554;42.132;24.786;2023-05-29T10:10:33;99008.97;;;24.56;100.00
7026;BME280;3554;42.132;24.786;2023-05-29T10:13:01;99006.19;;;24.65;100.00
7026;BME280;3554;42.132;24.786;2023-05-29T10:15:30;99008.06;;;24.21;100.00
7026;BME280;3554;42.132;24.786;2023-05-29T10:18:03;99008.38;;;24.44;100.00
7026;BME280;3554;42.132;24.786;2023-05-29T10:20:31;99009.31;;;24.61;100.00
7026;BME280;3554;42.132;24.786;2023-05-29T10:23:00;99003.13;;;24.60;100.00
7026;BME280;3554;42.132;24.786;2023-05-29T10:25:29;99003.97;;;24.94;100.00
7026;BME280;3554;42.132;24.786;2023-05-29T10:27:57;99005.00;;;25.01;100.00
7026;BME280;3554;42.132;24.786;2023-05-29T10:30:30;99002.75;;;25.30;100.00
7026;BME280;3554;42.132;24.786;2023-05-29T10:33:27;98992.78;;;25.49;100.00
7026;BME280;3554;42.132;24.786;2023-05-29T10:36:04;98999.16;;;25.56;100.00
7026;BME280;3554;42.132;24.786;2023-05-29T10:38:33;99018.59;;;25.58;100.00
7026;BME280;3554;42.132;24.786;2023-05-29T10:44:39;98996.34;;;25.15;100.00
7026;BME280;3554;42.132;24.786;2023-05-29T10:47:07;99002.75;;;25.30;100.00
7026;BME280;3554;42.132;24.786;2023-05-29T10:49:38;99002.44;;;25.33;100.00
7026;BME280;3554;42.132;24.786;2023-05-29T10:52:06;99007.38;;;25.62;100.00
7026;BME280;3554;42.132;24.786;2023-05-29T10:54:41;99002.50;;;25.50;100.00
7026;BME280;3554;42.132;24.786;2023-05-29T10:57:17;99012.00;;;24.94;100.00
7026;BME280;3554;42.132;24.786;2023-05-29T10:59:45;99006.44;;;25.21;100.00
7026;BME280;3554;42.132;24.786;2023-05-29T11:02:17;99006.09;;;25.24;100.00
7026;BME280;3554;42.132;24.786;2023-05-29T11:05:04;98998.63;;;24.94;100.00
7026;BME280;3554;42.132;24.786;2023-05-29T11:07:35;98990.22;;;25.31;100.00
7026;BME280;3554;42.132;24.786;2023-05-29T11:10:12;99008.97;;;24.89;100.00
7026;BME280;3554;42.132;24.786;2023-05-29T11:12:58;98999.41;;;24.87;100.00
7026;BME280;3554;42.132;24.786;2023-05-29T11:15:25;99002.25;;;24.77;100.00
7026;BME280;3554;42.132;24.786;2023-05-29T11:17:52;98999.53;;;24.18;100.00
7026;BME280;3554;42.132;24.786;2023-05-29T11:20:36;98984.53;;;24.84;100.00
7026;BME280;3554;42.132;24.786;2023-05-29T11:23:04;98994.56;;;25.32;100.00
7026;BME280;3554;42.132;24.786;2023-05-29T11:25:35;98975.38;;;25.53;100.00
7026;BME280;3554;42.132;24.786;2023-05-29T11:28:05;98981.88;;;25.58;100.00
7026;BME280;3554;42.132;24.786;2023-05-29T11:30:42;98984.09;;;25.63;100.00
7026;BME280;3554;42.132;24.786;2023-05-29T11:33:13;98986.00;;;24.79;100.00
7026;BME280;3554;42.132;24.786;2023-05-29T11:35:46;98962.84;;;24.36;100.00
7026;BME280;3554;42.132;24.786;2023-05-29T11:38:15;98975.94;;;24.13;100.00
7026;BME280;3554;42.132;24.786;2023-05-29T11:40:42;98973.72;;;24.34;100.00
7026;BME280;3554;42.132;24.786;2023-05-29T11:43:12;98972.13;;;24.50;100.00
7026;BME280;3554;42.132;24.786;2023-05-29T11:45:38;98975.72;;;25.00;100.00
7026;BME280;3554;42.132;24.786;2023-05-29T11:48:05;98974.94;;;25.23;100.00
7026;BME280;3554;42.132;24.786;2023-05-29T11:50:32;98970.16;;;25.43;100.00
7026;BME280;3554;42.132;24.786;2023-05-29T11:53:01;98970.34;;;25.82;100.00
7026;BME280;3554;42.132;24.786;2023-05-29T11:55:28;98970.03;;;26.09;100.00
7026;BME280;3554;42.132;24.786;2023-05-29T11:57:59;98963.50;;;26.03;100.00
7026;BME280;3554;42.132;24.786;2023-05-29T12:00:30;98949.88;;;26.21;100.00
7026;BME280;3554;42.132;24.786;2023-05-29T12:02:59;98940.13;;;26.28;100.00
7026;BME280;3554;42.132;24.786;2023-05-29T12:05:29;98946.69;;;26.25;100.00
7026;BME280;3554;42.132;24.786;2023-05-29T12:07:56;98946.56;;;26.11;100.00
7026;BME280;3554;42.132;24.786;2023-05-29T12:10:28;98940.00;;;26.05;100.00
7026;BME280;3554;42.132;24.786;2023-05-29T12:12:57;98915.69;;;26.15;100.00
7026;BME280;3554;42.132;24.786;2023-05-29T12:15:25;98942.25;;;26.49;100.00
7026;BME280;3554;42.132;24.786;2023-05-29T12:17:53;98943.59;;;26.44;100.00
7026;BME280;3554;42.132;24.786;2023-05-29T12:20:22;98921.16;;;26.37;100.00
7026;BME280;3554;42.132;24.786;2023-05-29T12:22:52;98953.31;;;26.54;100.00
7026;BME280;3554;42.132;24.786;2023-05-29T12:25:20;98939.81;;;25.91;100.00
7026;BME280;3554;42.132;24.786;2023-05-29T12:27:48;98954.41;;;25.96;100.00
7026;BME280;3554;42.132;24.786;2023-05-29T12:30:20;98943.16;;;26.01;100.00
7026;BME280;3554;42.132;24.786;2023-05-29T12:32:48;98952.41;;;26.14;100.00
7026;BME280;3554;42.132;24.786;2023-05-29T12:35:16;98947.22;;;26.13;100.00
7026;BME280;3554;42.132;24.786;2023-05-29T12:37:48;98949.00;;;26.36;100.00
7026;BME280;3554;42.132;24.786;2023-05-29T12:40:20;98962.06;;;25.35;100.00
7026;BME280;3554;42.132;24.786;2023-05-29T12:42:52;98940.06;;;24.32;100.00
7026;BME280;3554;42.132;24.786;2023-05-29T12:45:19;98942.06;;;24.64;100.00
7026;BME280;3554;42.132;24.786;2023-05-29T12:47:51;98901.34;;;24.86;100.00
7026;BME280;3554;42.132;24.786;2023-05-29T12:50:24;98900.69;;;24.84;100.00
7026;BME280;3554;42.132;24.786;2023-05-29T12:52:58;98941.94;;;25.23;100.00
7026;BME280;3554;42.132;24.786;2023-05-29T12:55:26;98935.56;;;25.08;100.00
7026;BME280;3554;42.132;24.786;2023-05-29T12:57:55;98935.78;;;25.30;100.00
7026;BME280;3554;42.132;24.786;2023-05-29T13:00:23;98930.81;;;25.60;100.00
7026;BME280;3554;42.132;24.786;2023-05-29T13:02:50;98927.44;;;24.76;100.00
7026;BME280;3554;42.132;24.786;2023-05-29T13:05:17;98882.31;;;25.05;100.00
7026;BME280;3554;42.132;24.786;2023-05-29T13:07:48;98925.59;;;25.42;100.00